createdAt,value
2018-06-05T00:00:24.152Z,3.60
2018-06-05T00:02:51.742Z,4.60
2018-06-05T00:05:19.289Z,4.10
2018-06-05T00:07:46.785Z,6.83
2018-06-05T00:10:14.349Z,6.53
2018-06-05T00:12:41.858Z,6.63
2018-06-05T00:15:09.378Z,4.97
2018-06-05T00:17:36.907Z,4.43
2018-06-05T00:20:04.638Z,6.57
2018-06-05T00:22:32.429Z,4.40
2018-06-05T00:25:00.006Z,4.80
2018-06-05T00:27:27.497Z,5.90
2018-06-05T00:29:55.019Z,6.70
2018-06-05T00:32:22.551Z,5.40
2018-06-05T00:34:50.111Z,7.03
2018-06-05T00:37:17.649Z,6.37
2018-06-05T00:39:45.182Z,5.37
2018-06-05T00:42:12.710Z,5.70
2018-06-05T00:44:40.234Z,4.20
2018-06-05T00:47:07.801Z,4.70
2018-06-05T00:49:35.335Z,6.10
2018-06-05T00:52:08.394Z,7.30
2018-06-05T00:54:35.948Z,7.80
2018-06-05T00:57:03.425Z,8.13
2018-06-05T00:59:30.947Z,6.77
2018-06-05T01:01:58.468Z,5.63
2018-06-05T01:04:26.825Z,4.87
2018-06-05T01:06:54.333Z,6.57
2018-06-05T01:09:21.846Z,5.20
2018-06-05T01:11:49.669Z,4.20
2018-06-05T01:14:17.258Z,5.73
2018-06-05T01:16:44.850Z,4.77
2018-06-05T01:19:12.532Z,3.73
2018-06-05T01:21:40.086Z,4.17
2018-06-05T01:24:07.761Z,4.00
2018-06-05T01:26:35.331Z,3.50
2018-06-05T01:29:02.900Z,3.73
2018-06-05T01:31:30.451Z,3.20
2018-06-05T01:33:58.277Z,3.30
2018-06-05T01:36:25.833Z,2.60
2018-06-05T01:38:53.435Z,3.20
2018-06-05T01:41:21.009Z,5.43
2018-06-05T01:43:48.579Z,3.03
2018-06-05T01:46:16.154Z,2.50
2018-06-05T01:48:43.696Z,2.77
2018-06-05T01:51:11.227Z,2.17
2018-06-05T01:53:38.817Z,2.33
2018-06-05T01:56:06.407Z,3.00
2018-06-05T01:58:34.019Z,2.87
2018-06-05T02:01:01.575Z,3.20
2018-06-05T02:03:29.135Z,3.90
2018-06-05T02:05:56.656Z,2.90
2018-06-05T02:08:24.236Z,4.13
2018-06-05T02:10:51.812Z,4.47
2018-06-05T02:13:19.379Z,4.10
2018-06-05T02:15:46.948Z,5.40
2018-06-05T02:18:14.544Z,4.10
2018-06-05T02:20:42.074Z,3.10
2018-06-05T02:23:09.626Z,3.30
2018-06-05T02:25:37.286Z,2.97
2018-06-05T02:28:04.839Z,2.77
2018-06-05T02:30:32.390Z,2.70
2018-06-05T02:33:00.865Z,2.70
2018-06-05T02:35:28.418Z,2.70
2018-06-05T02:37:55.957Z,6.43
2018-06-05T02:40:23.499Z,5.20
2018-06-05T02:42:51.059Z,4.30
2018-06-05T02:45:18.599Z,4.83
2018-06-05T02:47:46.160Z,3.17
2018-06-05T02:50:14.012Z,4.47
2018-06-05T02:52:41.582Z,3.90
2018-06-05T02:55:09.144Z,4.03
2018-06-05T02:57:36.718Z,4.50
2018-06-05T03:00:04.655Z,4.10
2018-06-05T03:02:33.255Z,5.07
2018-06-05T03:05:00.791Z,4.10
2018-06-05T03:07:28.373Z,4.90
2018-06-05T03:09:55.888Z,4.00
2018-06-05T03:12:23.471Z,5.80
2018-06-05T03:14:50.987Z,5.83
2018-06-05T03:17:18.554Z,3.93
2018-06-05T03:19:46.113Z,4.40
2018-06-05T03:22:13.906Z,3.97
2018-06-05T03:24:41.515Z,4.80
2018-06-05T03:27:12.924Z,3.90
2018-06-05T03:29:40.502Z,6.50
2018-06-05T03:32:08.050Z,5.20
2018-06-05T03:34:35.603Z,4.37
2018-06-05T03:37:03.208Z,3.70
2018-06-05T03:39:30.753Z,3.30
2018-06-05T03:41:58.345Z,3.80
2018-06-05T03:44:25.938Z,5.07
2018-06-05T03:46:53.487Z,4.20
2018-06-05T03:49:20.995Z,4.43
2018-06-05T03:51:48.526Z,3.87
2018-06-05T03:54:16.082Z,5.13
2018-06-05T03:56:43.696Z,5.47
2018-06-05T03:59:11.468Z,5.00
2018-06-05T04:01:39.057Z,6.67
2018-06-05T04:04:06.687Z,6.27
2018-06-05T04:06:34.334Z,6.10
2018-06-05T04:09:01.916Z,6.50
2018-06-05T04:11:30.916Z,6.83
2018-06-05T04:13:58.426Z,9.30
2018-06-05T04:16:26.114Z,7.57
2018-06-05T04:18:57.612Z,7.80
2018-06-05T04:21:25.178Z,9.17
2018-06-05T04:23:52.738Z,9.07
2018-06-05T04:26:20.331Z,8.60
2018-06-05T04:28:47.949Z,9.50
2018-06-05T04:31:15.528Z,9.30
2018-06-05T04:33:43.094Z,7.90
2018-06-05T04:36:10.707Z,8.47
2018-06-05T04:38:38.223Z,9.13
2018-06-05T04:41:05.791Z,8.30
2018-06-05T04:43:33.354Z,11.63
2018-06-05T04:46:00.910Z,13.47
2018-06-05T04:48:28.416Z,9.47
2018-06-05T04:50:55.991Z,8.17
2018-06-05T04:53:23.572Z,8.63
2018-06-05T04:55:51.269Z,8.83
2018-06-05T04:58:18.844Z,9.27
2018-06-05T05:00:46.463Z,8.43
2018-06-05T05:03:14.154Z,8.77
2018-06-05T05:05:41.719Z,6.40
2018-06-05T05:08:09.299Z,8.67
2018-06-05T05:10:36.875Z,7.20
2018-06-05T05:13:04.442Z,8.70
2018-06-05T05:15:32.030Z,8.53
2018-06-05T05:17:59.523Z,7.27
2018-06-05T05:20:27.795Z,6.80
2018-06-05T05:22:55.471Z,8.23
2018-06-05T05:25:23.524Z,6.97
2018-06-05T05:27:51.246Z,8.60
2018-06-05T05:30:19.068Z,8.50
2018-06-05T05:32:46.858Z,7.83
2018-06-05T05:35:14.434Z,7.97
2018-06-05T05:37:41.979Z,8.67
2018-06-05T05:40:09.503Z,7.30
2018-06-05T05:42:37.106Z,6.40
2018-06-05T05:45:05.295Z,8.80
2018-06-05T05:47:32.830Z,6.20
2018-06-05T05:50:00.391Z,7.37
2018-06-05T05:52:29.028Z,8.63
2018-06-05T05:54:56.574Z,7.83
2018-06-05T05:57:24.134Z,8.30
2018-06-05T05:59:51.836Z,7.93
2018-06-05T06:02:19.402Z,7.03
2018-06-05T06:04:46.996Z,8.10
2018-06-05T06:07:14.564Z,8.90
2018-06-05T06:09:42.134Z,8.23
2018-06-05T06:12:09.691Z,7.03
2018-06-05T06:14:37.318Z,8.83
2018-06-05T06:17:04.915Z,8.00
2018-06-05T06:19:32.475Z,8.33
2018-06-05T06:22:00.031Z,7.20
2018-06-05T06:24:27.604Z,6.70
2018-06-05T06:26:55.152Z,7.63
2018-06-05T06:29:22.722Z,8.07
2018-06-05T06:31:50.263Z,6.97
2018-06-05T06:34:17.833Z,6.97
2018-06-05T06:36:45.472Z,6.50
2018-06-05T06:39:13.132Z,8.63
2018-06-05T06:41:40.739Z,8.00
2018-06-05T06:44:08.272Z,8.63
2018-06-05T06:46:35.883Z,7.33
2018-06-05T06:49:03.443Z,7.97
2018-06-05T06:51:30.992Z,6.87
2018-06-05T06:53:58.539Z,7.10
2018-06-05T06:56:26.175Z,7.83
2018-06-05T06:58:53.763Z,7.77
2018-06-05T07:01:25.216Z,6.97
2018-06-05T07:03:52.790Z,7.47
2018-06-05T07:06:20.509Z,7.40
2018-06-05T07:08:48.030Z,6.70
2018-06-05T07:11:16.063Z,5.67
2018-06-05T07:13:43.620Z,6.03
2018-06-05T07:16:11.191Z,6.73
2018-06-05T07:18:38.961Z,6.07
2018-06-05T07:21:06.730Z,5.53
2018-06-05T07:23:34.351Z,7.77
2018-06-05T07:26:01.911Z,6.70
2018-06-05T07:28:29.554Z,6.60
2018-06-05T07:30:57.117Z,6.40
2018-06-05T07:33:24.705Z,7.20
2018-06-05T07:35:53.358Z,8.83
2018-06-05T07:38:21.152Z,6.10
2018-06-05T07:40:48.867Z,6.70
2018-06-05T07:43:16.418Z,6.70
2018-06-05T07:45:43.974Z,5.97
2018-06-05T07:48:11.523Z,5.47
2018-06-05T07:50:39.100Z,6.20
2018-06-05T07:53:06.602Z,6.20
2018-06-05T07:55:34.156Z,7.40
2018-06-05T07:58:02.616Z,5.40
2018-06-05T08:00:30.192Z,6.77
2018-06-05T08:02:57.730Z,6.10
2018-06-05T08:05:25.284Z,6.17
2018-06-05T08:07:52.921Z,5.90
2018-06-05T08:10:20.507Z,6.10
2018-06-05T08:12:48.056Z,7.07
2018-06-05T08:15:15.643Z,7.28
2018-06-05T08:17:43.222Z,5.97
2018-06-05T08:20:10.882Z,6.57
2018-06-05T08:22:49.723Z,6.75
2018-06-05T08:25:17.254Z,6.15
2018-06-05T08:27:44.815Z,5.60
2018-06-05T08:30:12.371Z,6.13
2018-06-05T08:32:40.055Z,6.78
2018-06-05T08:35:07.752Z,9.60
2018-06-05T08:37:36.390Z,6.70
2018-06-05T08:40:04.419Z,6.35
2018-06-05T08:42:32.133Z,8.28
2018-06-05T08:44:59.819Z,5.28
2018-06-05T08:47:27.366Z,6.12
2018-06-05T08:49:54.967Z,5.83
2018-06-05T08:52:22.523Z,7.12
2018-06-05T08:54:50.094Z,5.00
2018-06-05T08:57:17.624Z,5.67
2018-06-05T08:59:45.232Z,6.55
2018-06-05T09:02:12.716Z,5.83
2018-06-05T09:04:40.339Z,5.60
2018-06-05T09:07:07.886Z,5.75
2018-06-05T09:09:35.465Z,6.45
2018-06-05T09:12:03.011Z,5.37
2018-06-05T09:14:30.595Z,5.20
2018-06-05T09:16:58.198Z,4.75
2018-06-05T09:19:25.736Z,5.50
2018-06-05T09:21:53.262Z,4.83
2018-06-05T09:24:20.802Z,4.83
2018-06-05T09:26:48.359Z,4.62
2018-06-05T09:29:15.889Z,5.00
2018-06-05T09:31:43.427Z,4.85
2018-06-05T09:34:10.939Z,4.50
2018-06-05T09:36:38.487Z,4.53
2018-06-05T09:39:07.828Z,5.22
2018-06-05T09:41:35.658Z,5.33
2018-06-05T09:44:04.519Z,4.75
2018-06-05T09:46:32.079Z,5.70
2018-06-05T09:48:59.796Z,5.28
2018-06-05T09:51:27.351Z,4.70
2018-06-05T09:53:54.905Z,5.50
2018-06-05T09:56:22.476Z,6.12
2018-06-05T09:58:50.036Z,4.35
2018-06-05T10:01:17.604Z,5.10
2018-06-05T10:03:45.145Z,5.40
2018-06-05T10:06:12.818Z,5.17
2018-06-05T10:08:40.334Z,5.08
2018-06-05T10:11:07.978Z,5.28
2018-06-05T10:13:35.596Z,5.78
2018-06-05T10:16:03.202Z,6.22
2018-06-05T10:18:30.727Z,5.12
2018-06-05T10:20:58.312Z,6.20
2018-06-05T10:23:25.831Z,5.53
2018-06-05T10:25:53.362Z,5.85
2018-06-05T10:28:20.935Z,4.87
2018-06-05T10:30:49.015Z,5.90
2018-06-05T10:33:16.550Z,4.83
2018-06-05T10:35:44.148Z,6.00
2018-06-05T10:38:11.883Z,4.47
2018-06-05T10:40:39.670Z,5.37
2018-06-05T10:43:07.197Z,5.22
2018-06-05T10:45:34.747Z,6.12
2018-06-05T10:48:02.282Z,4.90
2018-06-05T10:50:29.854Z,5.53
2018-06-05T10:52:57.393Z,4.60
2018-06-05T10:55:24.938Z,4.47
2018-06-05T10:57:52.454Z,5.92
2018-06-05T11:00:23.972Z,5.28
2018-06-05T11:02:51.526Z,4.80
2018-06-05T11:05:19.161Z,5.20
2018-06-05T11:07:46.787Z,4.97
2018-06-05T11:10:14.323Z,5.03
2018-06-05T11:12:42.002Z,4.37
2018-06-05T11:15:09.803Z,5.70
2018-06-05T11:17:37.426Z,5.50
2018-06-05T11:20:04.995Z,5.15
2018-06-05T11:22:32.540Z,5.33
2018-06-05T11:25:00.162Z,4.70
2018-06-05T11:27:27.694Z,5.92
2018-06-05T11:29:55.222Z,5.78
2018-06-05T11:32:22.742Z,5.12
2018-06-05T11:34:50.751Z,5.50
2018-06-05T11:37:18.263Z,4.70
2018-06-05T11:39:45.816Z,5.53
2018-06-05T11:42:13.363Z,4.20
2018-06-05T11:44:41.235Z,6.20
2018-06-05T11:47:08.941Z,5.12
2018-06-05T11:49:36.472Z,4.80
2018-06-05T11:52:04.054Z,5.47
2018-06-05T11:54:31.670Z,5.17
2018-06-05T11:56:59.225Z,5.60
2018-06-05T11:59:26.771Z,5.20
2018-06-05T12:01:54.300Z,5.28
2018-06-05T12:04:21.834Z,5.40
2018-06-05T12:06:49.403Z,4.20
2018-06-05T12:09:16.947Z,4.78
2018-06-05T12:11:44.499Z,4.55
2018-06-05T12:14:12.024Z,4.03
2018-06-05T12:16:39.572Z,4.75
2018-06-05T12:19:07.125Z,5.22
2018-06-05T12:21:35.358Z,5.58
2018-06-05T12:24:05.946Z,5.47
2018-06-05T12:26:33.632Z,4.03
2018-06-05T12:29:01.166Z,4.97
2018-06-05T12:31:28.727Z,5.67
2018-06-05T12:33:56.233Z,5.78
2018-06-05T12:36:23.758Z,5.60
2018-06-05T12:38:51.285Z,5.12
2018-06-05T12:41:19.010Z,6.05
2018-06-05T12:43:46.523Z,5.87
2018-06-05T12:46:14.041Z,5.55
2018-06-05T12:48:41.544Z,5.25
2018-06-05T12:51:09.208Z,5.87
2018-06-05T12:53:36.728Z,4.83
2018-06-05T12:56:04.426Z,5.10
2018-06-05T12:58:31.963Z,5.00
2018-06-05T13:00:59.489Z,4.83
2018-06-05T13:03:26.982Z,4.37
2018-06-05T13:05:54.474Z,4.42
2018-06-05T13:08:21.965Z,4.58
2018-06-05T13:10:49.474Z,4.92
2018-06-05T13:13:16.982Z,5.03
2018-06-05T13:15:44.494Z,4.80
2018-06-05T13:18:12.019Z,4.87
2018-06-05T13:20:39.572Z,4.72
2018-06-05T13:23:07.077Z,4.70
2018-06-05T13:25:34.895Z,4.25
2018-06-05T13:28:02.419Z,4.25
2018-06-05T13:30:29.935Z,4.40
2018-06-05T13:32:57.469Z,4.55
2018-06-05T13:35:25.004Z,4.30
2018-06-05T13:37:52.527Z,3.90
2018-06-05T13:40:20.056Z,5.58
2018-06-05T13:42:47.539Z,5.50
2018-06-05T13:45:18.020Z,5.33
2018-06-05T13:47:46.063Z,5.05
2018-06-05T13:50:13.594Z,4.87
2018-06-05T13:52:41.156Z,5.62
2018-06-05T13:55:08.657Z,4.85
2018-06-05T13:57:36.179Z,5.05
2018-06-05T14:00:04.133Z,4.92
2018-06-05T14:02:31.679Z,5.05
2018-06-05T14:04:59.258Z,4.67
2018-06-05T14:07:28.817Z,5.10
2018-06-05T14:09:56.375Z,5.55
2018-06-05T14:12:23.951Z,5.20
2018-06-05T14:14:55.298Z,5.25
2018-06-05T14:17:23.023Z,4.83
2018-06-05T14:19:50.684Z,4.95
2018-06-05T14:22:18.372Z,6.28
2018-06-05T14:24:45.979Z,5.60
2018-06-05T14:27:13.581Z,5.42
2018-06-05T14:29:41.179Z,5.15
2018-06-05T14:32:08.843Z,5.03
2018-06-05T14:34:37.569Z,5.08
2018-06-05T14:37:05.224Z,5.60
2018-06-05T14:39:32.905Z,5.80
2018-06-05T14:42:00.523Z,6.28
2018-06-05T14:44:28.090Z,5.45
2018-06-05T14:46:55.667Z,5.58
2018-06-05T14:49:23.201Z,4.97
2018-06-05T14:51:50.761Z,5.00
2018-06-05T14:54:18.335Z,5.00
2018-06-05T14:56:46.047Z,4.65
2018-06-05T14:59:13.596Z,6.12
2018-06-05T15:01:41.255Z,5.03
2018-06-05T15:04:08.817Z,5.22
2018-06-05T15:06:36.403Z,4.92
2018-06-05T15:09:05.565Z,6.03
2018-06-05T15:11:33.187Z,5.20
2018-06-05T15:14:00.764Z,5.03
2018-06-05T15:16:28.307Z,5.80
2018-06-05T15:18:55.887Z,5.15
2018-06-05T15:21:23.469Z,5.30
2018-06-05T15:23:51.014Z,5.65
2018-06-05T15:26:18.546Z,6.03
2018-06-05T15:28:46.114Z,5.12
2018-06-05T15:31:13.661Z,4.65
2018-06-05T15:33:41.229Z,4.30
2018-06-05T15:36:08.747Z,5.05
2018-06-05T15:38:36.295Z,4.95
2018-06-05T15:41:03.934Z,5.25
2018-06-05T15:43:31.519Z,5.08
2018-06-05T15:46:00.160Z,5.00
2018-06-05T15:48:27.767Z,5.12
2018-06-05T15:50:55.331Z,6.45
2018-06-05T15:53:22.883Z,5.97
2018-06-05T15:55:50.464Z,5.03
2018-06-05T15:58:18.019Z,4.47
2018-06-05T16:00:45.574Z,4.67
2018-06-05T16:03:17.025Z,4.67
2018-06-05T16:05:44.655Z,5.55
2018-06-05T16:08:12.211Z,5.95
2018-06-05T16:10:39.821Z,5.40
2018-06-05T16:13:07.389Z,5.72
2018-06-05T16:15:35.139Z,5.28
2018-06-05T16:18:02.762Z,5.50
2018-06-05T16:20:30.516Z,5.10
2018-06-05T16:22:58.207Z,5.25
2018-06-05T16:25:27.843Z,5.67
2018-06-05T16:27:55.518Z,6.12
2018-06-05T16:30:25.184Z,5.23
2018-06-05T16:32:55.208Z,6.30
2018-06-05T16:35:24.271Z,5.70
2018-06-05T16:37:52.694Z,5.13
2018-06-05T16:40:24.201Z,5.30
2018-06-05T16:42:53.860Z,5.23
2018-06-05T16:45:24.064Z,5.50
2018-06-05T16:47:59.441Z,5.10
2018-06-05T16:50:32.495Z,5.03
2018-06-05T16:53:00.078Z,4.40
2018-06-05T16:55:33.465Z,5.07
2018-06-05T16:58:04.691Z,5.23
2018-06-05T17:00:33.392Z,4.77
2018-06-05T17:03:02.679Z,4.40
2018-06-05T17:05:30.455Z,5.67
2018-06-05T17:08:02.267Z,4.97
2018-06-05T17:10:33.821Z,5.10
2018-06-05T17:13:09.253Z,5.37
2018-06-05T17:15:43.427Z,5.33
2018-06-05T17:18:11.043Z,5.77
2018-06-05T17:20:38.607Z,5.20
2018-06-05T17:23:12.151Z,5.60
2018-06-05T17:25:39.681Z,4.93
2018-06-05T17:28:07.269Z,4.83
2018-06-05T17:30:34.810Z,4.97
2018-06-05T17:33:02.454Z,4.97
2018-06-05T17:35:30.198Z,4.50
2018-06-05T17:37:58.265Z,5.13
2018-06-05T17:40:25.892Z,4.20
2018-06-05T17:42:53.442Z,5.37
2018-06-05T17:45:21.034Z,4.20
2018-06-05T17:47:48.579Z,4.07
2018-06-05T17:50:16.155Z,4.43
2018-06-05T17:52:43.762Z,4.40
2018-06-05T17:55:11.398Z,4.73
2018-06-05T17:57:38.962Z,4.43
2018-06-05T18:00:06.573Z,4.20
2018-06-05T18:02:34.114Z,4.57
2018-06-05T18:05:01.740Z,4.80
2018-06-05T18:07:29.414Z,5.33
2018-06-05T18:09:57.007Z,4.93
2018-06-05T18:12:24.825Z,4.63
2018-06-05T18:14:52.352Z,4.90
2018-06-05T18:17:19.990Z,4.30
2018-06-05T18:19:47.623Z,5.17
2018-06-05T18:22:16.279Z,4.47
2018-06-05T18:24:43.831Z,4.00
2018-06-05T18:27:13.497Z,4.83
2018-06-05T18:29:48.095Z,4.37
2018-06-05T18:32:15.702Z,3.97
2018-06-05T18:34:43.291Z,4.40
2018-06-05T18:37:10.913Z,4.57
2018-06-05T18:39:38.552Z,4.27
2018-06-05T18:42:06.162Z,3.97
2018-06-05T18:44:38.869Z,4.17
2018-06-05T18:47:08.470Z,4.43
2018-06-05T18:49:36.056Z,3.57
2018-06-05T18:52:03.635Z,3.97
2018-06-05T18:54:31.159Z,3.30
2018-06-05T18:56:58.821Z,4.83
2018-06-05T18:59:26.392Z,3.30
2018-06-05T19:01:54.095Z,4.10
2018-06-05T19:04:21.694Z,3.73
2018-06-05T19:06:51.875Z,4.07
2018-06-05T19:09:19.496Z,3.90
2018-06-05T19:11:47.029Z,3.70
2018-06-05T19:14:14.579Z,4.33
2018-06-05T19:16:42.202Z,3.60
2018-06-05T19:19:09.863Z,3.87
2018-06-05T19:21:37.475Z,3.70
2018-06-05T19:24:05.301Z,3.47
2018-06-05T19:26:33.038Z,3.23
2018-06-05T19:29:00.597Z,4.80
2018-06-05T19:31:28.155Z,5.57
2018-06-05T19:33:55.726Z,4.33
2018-06-05T19:36:23.292Z,4.23
2018-06-05T19:38:50.946Z,4.80
2018-06-05T19:41:18.494Z,3.67
2018-06-05T19:43:46.088Z,4.20
2018-06-05T19:46:13.725Z,3.87
2018-06-05T19:48:41.335Z,4.80
2018-06-05T19:51:08.959Z,4.70
2018-06-05T19:53:37.504Z,4.00
2018-06-05T19:56:05.140Z,4.00
2018-06-05T19:58:32.852Z,3.40
2018-06-05T20:01:00.416Z,3.87
2018-06-05T20:03:27.977Z,3.20
2018-06-05T20:05:55.573Z,2.93
2018-06-05T20:08:23.169Z,3.40
2018-06-05T20:10:50.767Z,3.30
2018-06-05T20:13:18.323Z,3.80
2018-06-05T20:15:45.951Z,3.27
2018-06-05T20:18:13.513Z,3.73
2018-06-05T20:20:41.135Z,3.17
2018-06-05T20:23:08.671Z,3.93
2018-06-05T20:25:36.246Z,4.30
2018-06-05T20:28:03.766Z,3.77
2018-06-05T20:30:31.380Z,3.90
2018-06-05T20:32:58.931Z,4.80
2018-06-05T20:35:26.492Z,5.00
2018-06-05T20:37:54.083Z,4.50
2018-06-05T20:40:21.673Z,5.30
2018-06-05T20:42:49.336Z,4.77
2018-06-05T20:45:16.883Z,4.20
2018-06-05T20:47:44.470Z,4.23
2018-06-05T20:50:12.023Z,4.50
2018-06-05T20:52:39.577Z,5.17
2018-06-05T20:55:07.145Z,5.00
2018-06-05T20:57:34.725Z,4.73
2018-06-05T21:00:02.796Z,5.50
2018-06-05T21:02:30.394Z,6.40
2018-06-05T21:04:57.983Z,7.77
2018-06-05T21:07:25.637Z,6.67
2018-06-05T21:09:53.233Z,7.03
2018-06-05T21:12:20.804Z,5.20
2018-06-05T21:14:48.404Z,5.30
2018-06-05T21:17:16.271Z,6.83
2018-06-05T21:19:43.867Z,5.57
2018-06-05T21:22:11.451Z,8.63
2018-06-05T21:24:39.055Z,7.30
2018-06-05T21:27:06.557Z,7.13
2018-06-05T21:29:34.124Z,7.83
2018-06-05T21:32:01.666Z,7.10
2018-06-05T21:34:29.327Z,8.43
2018-06-05T21:36:56.891Z,8.10
2018-06-05T21:39:24.476Z,8.87
2018-06-05T21:41:52.052Z,7.70
2018-06-05T21:44:19.715Z,7.13
2018-06-05T21:46:47.562Z,8.67
2018-06-05T21:49:15.139Z,7.40
2018-06-05T21:51:42.676Z,8.30
2018-06-05T21:54:10.339Z,9.00
2018-06-05T21:56:37.951Z,8.03
2018-06-05T21:59:05.518Z,6.17
2018-06-05T22:01:33.059Z,6.60
2018-06-05T22:04:00.629Z,7.90
2018-06-05T22:06:28.161Z,5.73
2018-06-05T22:08:55.746Z,7.07
2018-06-05T22:11:23.399Z,6.73
2018-06-05T22:13:51.123Z,8.57
2018-06-05T22:16:18.684Z,8.90
2018-06-05T22:18:46.250Z,11.77
2018-06-05T22:21:24.826Z,9.50
2018-06-05T22:23:52.442Z,8.13
2018-06-05T22:26:20.019Z,8.37
2018-06-05T22:28:48.033Z,9.60
2018-06-05T22:31:22.287Z,9.03
2018-06-05T22:33:49.851Z,8.30
2018-06-05T22:36:17.484Z,5.83
2018-06-05T22:38:45.055Z,7.20
2018-06-05T22:41:12.597Z,8.93
2018-06-05T22:43:40.169Z,9.97
2018-06-05T22:46:11.696Z,9.53
2018-06-05T22:48:39.256Z,7.83
2018-06-05T22:51:06.776Z,7.93
2018-06-05T22:53:38.224Z,9.47
2018-06-05T22:56:06.857Z,11.37
2018-06-05T22:58:34.529Z,12.27
2018-06-05T23:01:03.233Z,13.27
2018-06-05T23:03:30.861Z,9.57
2018-06-05T23:05:58.411Z,9.57
2018-06-05T23:08:34.599Z,11.97
2018-06-05T23:11:03.254Z,12.23
2018-06-05T23:13:30.815Z,9.90
2018-06-05T23:18:49.907Z,11.33
2018-06-05T23:21:17.463Z,8.80
2018-06-05T23:26:46.220Z,11.33
2018-06-05T23:29:13.794Z,10.93
2018-06-05T23:31:45.259Z,12.93
2018-06-05T23:34:12.846Z,10.30
2018-06-05T23:36:40.404Z,10.67
2018-06-05T23:39:07.953Z,8.67
2018-06-05T23:41:35.635Z,10.20
2018-06-05T23:44:10.027Z,9.27
2018-06-05T23:46:59.259Z,9.97
2018-06-05T23:49:26.870Z,9.93
2018-06-05T23:51:58.403Z,9.77
2018-06-05T23:54:26.241Z,11.53
2018-06-05T23:56:53.801Z,12.33
2018-06-05T23:59:21.374Z,11.20
